Weather observations for the past three days for
Carlsbad, McClellan-Palomar Airport
Metric (Imperial)
Date Time (pdt) Wind (kph) Vis. (km) Weather Sky Cond. Temperature (ºC) Relative Humidity Wind Chill (°C) Heat Index (°C) Pressure Precipitation (cm)
Air Dwpt 6 hour altimeter (cm) sea level (mb) 1 hr 3 hr 6 hr
Max. Min.
04 20:53 W 7 16.09 Overcast SCT021 BKN027 OVC065 16.7 12.2 75% 76.12 1014.8
04 19:53 W 11 16.09 Mostly Cloudy FEW021 BKN075 16.7 11.1 70% 76.1 1014.4
04 18:53 W 15 16.09 Overcast BKN022 BKN033 OVC080 17.2 11.7 70% 76.1 1014.5
04 17:53 W 17 G 35 16.09 A Few Clouds FEW025 FEW075 17.8 10.6 63% 76.12 1014.8
04 16:53 W 24 G 33 16.09 Mostly Cloudy BKN075 17.8 10.6 18.9 17.2 63% 76.12 1014.8
04 15:53 W 19 G 33 16.09 Fair CLR 17.8 10 60% 76.12 1014.7
04 14:53 W 22 G 37 16.09 Fair CLR 18.3 10 59% 76.17 1015.4
04 13:53 W 19 G 31 16.09 Fair CLR 18.3 7.8 51% 76.23 1015.9
04 12:53 Vrbl 11 G 28 16.09 Fair CLR 18.3 8.9 54% 76.2 1015.7
04 11:53 W 13 G 30 16.09 A Few Clouds FEW029 17.8 9.4 58% 76.25 1016.2
04 10:53 SW 17 16.09 A Few Clouds FEW026 17.2 10 17.8 13.9 63% 76.25 1016.2
04 09:53 Vrbl 9 16.09 Partly Cloudy FEW025 SCT034 SCT043 16.7 10 65% 76.2 1015.7
04 08:53 SW 15 16.09 A Few Clouds FEW027 16.1 10 67% 76.17 1015.4
04 07:53 Calm 16.09 Mostly Cloudy BKN049 15 10.6 75% 76.15 1015.2
04 06:53 Calm 16.09 Overcast FEW023 BKN042 OVC055 13.9 11.1 83% 76.15 1015.0
04 05:53 Calm 16.09 Mostly Cloudy BKN055 15 10.6 75% 76.12 1014.6
04 04:53 Calm 16.09 Overcast FEW026 BKN034 OVC044 15 10.6 16.7 15 75% 76.12 1014.6 0.03
04 03:53 W 7 16.09 Partly Cloudy SCT023 15 11.1 78% 76.12 1014.6
04 02:53 W 6 16.09 Overcast SCT023 BKN034 OVC044 15 11.7 81% 76.1 1014.2
04 01:53 N 6 16.09 Overcast BKN022 OVC037 15 12.8 87% 76.1 1014.3 0.03 0.03
04 00:53 W 11 16.09 Overcast FEW019 SCT023 OVC060 16.1 11.7 75% 76.17 1015.3
03 23:53 W 15 16.09 Overcast FEW027 OVC055 16.1 11.1 72% 76.15 1015.2
03 22:53 W 9 16.09 Overcast BKN023 BKN049 OVC055 16.7 11.1 17.8 16.7 70% 76.1 1014.2
03 21:53 W 7 16.09 Overcast FEW025 SCT030 OVC055 16.7 11.1 70% 76.12 1014.8
03 20:53 W 7 16.09 Overcast FEW026 OVC055 17.2 10 63% 76.1 1014.2
03 19:53 W 11 16.09 Overcast SCT027 OVC055 17.2 10 63% 76.07 1013.9
03 18:53 W 15 16.09 Overcast OVC050 17.2 10 63% 76.05 1013.7
03 17:53 W 19 16.09 Overcast OVC049 17.8 9.4 58% 76 1013.1
03 16:53 Vrbl 9 16.09 Overcast OVC048 17.2 8.9 19.4 17.2 58% 75.97 1012.8
03 15:53 W 15 16.09 Fair CLR 18.9 8.3 50% 76 1012.9
03 14:53 SW 17 16.09 A Few Clouds FEW039 FEW049 18.9 8.3 50% 76.02 1013.3
03 13:53 NW 13 16.09 Mostly Cloudy FEW028 SCT039 BKN048 18.3 10 59% 76.05 1013.6
03 12:53 W 15 16.09 Overcast BKN036 OVC045 17.8 10 60% 76.07 1014.1
03 11:53 Vrbl 9 16.09 Overcast OVC040 17.8 10.6 63% 76.1 1014.2
03 10:53 W 13 16.09 Overcast FEW020 OVC037 17.2 11.7 17.8 15 70% 76.1 1014.2
03 09:53 S 7 16.09 Overcast SCT018 OVC037 17.2 11.7 70% 76.07 1014.0
03 08:53 Vrbl 7 16.09 Overcast FEW015 OVC035 16.7 12.2 75% 76.05 1013.7
03 07:53 W 9 16.09 Overcast SCT014 OVC033 16.1 12.2 78% 76.05 1013.7
03 06:53 W 9 16.09 Overcast OVC033 16.1 12.2 78% 76.02 1013.4
03 05:53 W 11 16.09 Overcast OVC021 15.6 12.8 84% 75.97 1012.7
03 04:53 W 11 16.09 Overcast BKN009 OVC016 15 13.3 16.1 15 90% 75.95 1012.4
03 03:53 W 6 16.09 Overcast OVC015 15.6 12.8 84% 75.95 1012.4
03 02:53 SW 7 16.09 Overcast OVC014 16.1 12.8 81% 75.95 1012.3
03 01:53 SW 7 16.09 Overcast OVC012 16.1 13.3 84% 75.97 1012.8
03 00:53 S 7 16.09 Overcast OVC011 16.1 13.3 84% 76.02 1013.2
02 23:53 S 9 16.09 Overcast OVC010 16.1 13.3 84% 76.02 1013.4
02 22:53 SW 7 16.09 Overcast OVC010 16.1 13.9 17.2 16.1 87% 76 1013.0
02 21:53 Calm 16.09 Overcast OVC011 16.1 13.3 84% 75.95 1012.4
02 20:53 Calm 16.09 Overcast OVC011 16.1 13.3 84% 75.87 1011.4
02 19:53 Calm 16.09 Overcast OVC011 16.1 12.8 81% 75.87 1011.1
02 18:53 W 7 16.09 Overcast OVC011 16.7 13.3 80% 75.84 1011.0
02 17:53 W 9 16.09 Overcast OVC011 16.7 13.3 80% 75.84 1010.8
02 16:53 W 13 16.09 Overcast OVC011 17.2 13.9 18.9 17.2 81% 75.84 1010.9
02 15:53 W 13 16.09 Overcast OVC011 17.8 13.9 78% 75.87 1011.2
02 14:53 W 13 16.09 Overcast OVC012 17.8 13.9 78% 75.92 1012.1
02 13:53 W 13 16.09 Mostly Cloudy BKN015 18.9 14.4 75% 75.95 1012.4
02 12:53 NW 9 G 26 16.09 Mostly Cloudy BKN016 18.3 14.4 78% 76 1012.9
02 11:53 SW 19 G 30 16.09 Overcast OVC014 18.9 14.4 75% 76.02 1013.5
02 10:53 Calm 16.09 Overcast OVC016 17.8 13.3 18.3 16.1 75% 76.07 1013.9
02 09:53 Vrbl 6 16.09 Overcast OVC014 17.2 13.3 78% 76.12 1014.5
02 08:53 NW 7 16.09 Overcast OVC012 16.7 13.3 80% 76.1 1014.5
02 07:53 NW 6 14.48 Overcast OVC012 16.7 14.4 86% 76.1 1014.3
02 06:53 Vrbl 6 9.66 Fog/Mist OVC010 16.1 14.4 90% 76.05 1013.7
02 05:53 Calm 12.87 Overcast OVC010 16.7 13.9 84% 76.02 1013.5
02 04:53 SE 7 16.09 Overcast OVC011 16.7 13.9 17.2 16.1 84% 76 1013.1
02 03:53 Calm 16.09 Overcast OVC011 16.7 13.9 84% 76 1013.0
02 02:53 Calm 16.09 Overcast OVC011 16.7 13.9 84% 75.97 1012.8
02 01:53 NE 6 16.09 Overcast OVC012 16.7 13.9 84% 76 1012.8
02 00:53 Vrbl 6 16.09 Overcast OVC012 16.7 13.9 84% 76.05 1013.6
01 23:53 Vrbl 6 16.09 Overcast OVC012 16.7 13.9 84% 76.05 1013.7
01 22:53 Calm 16.09 Overcast OVC012 17.2 13.9 18.9 16.7 81% 76.05 1013.7
01 21:53 SW 7 16.09 Overcast OVC012 17.2 13.9 81% 76.05 1013.6
Date Time (pdt) Wind (kph) Vis. (km) Weather Sky Cond. Air Dwpt Max. Min. Relative Humidity Wind Chill (°C) Heat Index (°C) altimeter (cm) sea level (mb) 1 hr 3 hr 6 hr
6 hour
Temperature (ºC) Pressure Precipitation (cm)